createdAt,value
2022-08-28T00:00:40.753Z,1010.16
2022-08-28T00:01:40.759Z,1010.15
2022-08-28T00:02:40.694Z,1010.18
2022-08-28T00:03:40.570Z,1010.19
2022-08-28T00:04:40.644Z,1010.18
2022-08-28T00:05:40.478Z,1010.15
2022-08-28T00:06:40.388Z,1010.17
2022-08-28T00:07:43.235Z,1010.16
2022-08-28T00:08:40.302Z,1010.17
2022-08-28T00:09:40.200Z,1010.20
2022-08-28T00:10:40.114Z,1010.14
2022-08-28T00:11:40.111Z,1010.12
2022-08-28T00:12:40.111Z,1010.21
2022-08-28T00:13:39.922Z,1010.16
2022-08-28T00:14:40.047Z,1010.13
2022-08-28T00:15:39.830Z,1010.12
2022-08-28T00:16:39.742Z,1010.14
2022-08-28T00:17:39.740Z,1010.14
2022-08-28T00:18:42.614Z,1010.20
2022-08-28T00:19:39.556Z,1010.14
2022-08-28T00:20:39.560Z,1010.17
2022-08-28T00:21:39.462Z,1010.16
2022-08-28T00:22:39.399Z,1010.16
2022-08-28T00:23:42.909Z,1010.18
2022-08-28T00:24:39.280Z,1010.18
2022-08-28T00:25:39.213Z,1010.19
2022-08-28T00:26:39.116Z,1010.23
2022-08-28T00:27:39.090Z,1010.23
2022-08-28T00:28:39.026Z,1010.19
2022-08-28T00:29:38.999Z,1010.22
2022-08-28T00:30:38.906Z,1010.22
2022-08-28T00:31:38.889Z,1010.23
2022-08-28T00:32:38.812Z,1010.20
2022-08-28T00:33:38.719Z,1010.24
2022-08-28T00:34:38.658Z,1010.22
2022-08-28T00:35:38.657Z,1010.22
2022-08-28T00:36:38.536Z,1010.24
2022-08-28T00:37:38.541Z,1010.26
2022-08-28T00:38:38.473Z,1010.29
2022-08-28T00:39:38.380Z,1010.23
2022-08-28T00:40:38.336Z,1010.25
2022-08-28T00:41:38.258Z,1010.26
2022-08-28T00:42:38.195Z,1010.24
2022-08-28T00:43:38.162Z,1010.25
2022-08-28T00:44:38.017Z,1010.26
2022-08-28T00:45:40.068Z,1010.24
2022-08-28T00:46:40.616Z,1010.23
2022-08-28T00:47:37.888Z,1010.23
2022-08-28T00:48:37.931Z,1010.25
2022-08-28T00:49:37.804Z,1010.21
2022-08-28T00:50:37.704Z,1010.21
2022-08-28T00:51:37.640Z,1010.24
2022-08-28T00:52:37.614Z,1010.25
2022-08-28T00:53:37.519Z,1010.24
2022-08-28T00:54:37.521Z,1010.28
2022-08-28T00:55:37.431Z,1010.26
2022-08-28T00:56:37.357Z,1010.30
2022-08-28T00:57:38.255Z,1010.27
2022-08-28T00:58:37.179Z,1010.31
2022-08-28T00:59:37.116Z,1010.25
2022-08-28T01:00:37.059Z,1010.30
2022-08-28T01:01:37.040Z,1010.26
2022-08-28T01:02:36.997Z,1010.21
2022-08-28T01:03:36.878Z,1010.24
2022-08-28T01:04:36.819Z,1010.26
2022-08-28T01:05:36.759Z,1010.23
2022-08-28T01:06:36.700Z,1010.25
2022-08-28T01:07:36.641Z,1010.25
2022-08-28T01:08:36.580Z,1010.24
2022-08-28T01:09:36.531Z,1010.24
2022-08-28T01:10:36.459Z,1010.26
2022-08-28T01:11:36.398Z,1010.23
2022-08-28T01:12:36.347Z,1010.20
2022-08-28T01:13:36.288Z,1010.17
2022-08-28T01:14:36.223Z,1010.22
2022-08-28T01:15:36.219Z,1010.20
2022-08-28T01:16:36.101Z,1010.23
2022-08-28T01:17:36.040Z,1010.25
2022-08-28T01:18:35.984Z,1010.22
2022-08-28T01:19:35.920Z,1010.26
2022-08-28T01:20:35.862Z,1010.22
2022-08-28T01:21:35.812Z,1010.24
2022-08-28T01:22:35.742Z,1010.26
2022-08-28T01:23:35.689Z,1010.21
2022-08-28T01:24:35.621Z,1010.25
2022-08-28T01:25:35.562Z,1010.21
2022-08-28T01:26:35.502Z,1010.22
2022-08-28T01:27:35.442Z,1010.23
2022-08-28T01:28:35.384Z,1010.23
2022-08-28T01:29:35.319Z,1010.18
2022-08-28T01:30:35.258Z,1010.24
2022-08-28T01:31:35.273Z,1010.22
2022-08-28T01:32:35.140Z,1010.26
2022-08-28T01:33:35.082Z,1010.27
2022-08-28T01:34:35.019Z,1010.21
2022-08-28T01:35:34.968Z,1010.23
2022-08-28T01:36:34.946Z,1010.28
2022-08-28T01:37:34.861Z,1010.24
2022-08-28T01:38:34.791Z,1010.25
2022-08-28T01:39:34.726Z,1010.26
2022-08-28T01:40:34.747Z,1010.27
2022-08-28T01:41:34.602Z,1010.28
2022-08-28T01:42:34.544Z,1010.28
2022-08-28T01:43:34.486Z,1010.26
2022-08-28T01:44:34.421Z,1010.24
2022-08-28T01:45:34.366Z,1010.26
2022-08-28T01:46:34.328Z,1010.33
2022-08-28T01:47:34.243Z,1010.28
2022-08-28T01:48:34.185Z,1010.27
2022-08-28T01:49:34.122Z,1010.32
2022-08-28T01:50:34.064Z,1010.27
2022-08-28T01:51:35.257Z,1010.26
2022-08-28T01:52:33.952Z,1010.22
2022-08-28T01:53:33.884Z,1010.25
2022-08-28T01:54:33.825Z,1010.23
2022-08-28T01:55:33.762Z,1010.22
2022-08-28T01:56:33.707Z,1010.18
2022-08-28T01:57:33.645Z,1010.23
2022-08-28T01:58:37.551Z,1010.22
2022-08-28T01:59:33.523Z,1010.23
2022-08-28T02:00:33.464Z,1010.25
2022-08-28T02:01:33.484Z,1010.22
2022-08-28T02:02:33.355Z,1010.24
2022-08-28T02:03:33.291Z,1010.22
2022-08-28T02:04:33.240Z,1010.24
2022-08-28T02:05:33.168Z,1010.27
2022-08-28T02:06:33.106Z,1010.27
2022-08-28T02:07:33.050Z,1010.29
2022-08-28T02:08:32.988Z,1010.24
2022-08-28T02:09:32.924Z,1010.24
2022-08-28T02:10:32.867Z,1010.23
2022-08-28T02:11:32.806Z,1010.26
2022-08-28T02:12:32.743Z,1010.25
2022-08-28T02:13:32.685Z,1010.25
2022-08-28T02:14:32.625Z,1010.26
2022-08-28T02:15:32.587Z,1010.21
2022-08-28T02:16:32.506Z,1010.21
2022-08-28T02:17:32.446Z,1010.17
2022-08-28T02:18:32.385Z,1010.21
2022-08-28T02:19:32.323Z,1010.18
2022-08-28T02:20:32.269Z,1010.16
2022-08-28T02:21:32.205Z,1010.19
2022-08-28T02:22:32.145Z,1010.14
2022-08-28T02:23:32.096Z,1010.16
2022-08-28T02:24:32.026Z,1010.14
2022-08-28T02:25:31.965Z,1010.14
2022-08-28T02:26:31.907Z,1010.16
2022-08-28T02:27:32.029Z,1010.16
2022-08-28T02:28:31.796Z,1010.19
2022-08-28T02:29:31.732Z,1010.16
2022-08-28T02:30:31.669Z,1010.18
2022-08-28T02:31:31.614Z,1010.18
2022-08-28T02:32:31.548Z,1010.18
2022-08-28T02:33:31.487Z,1010.20
2022-08-28T02:34:31.435Z,1010.22
2022-08-28T02:35:31.388Z,1010.20
2022-08-28T02:36:31.309Z,1010.19
2022-08-28T02:37:31.246Z,1010.20
2022-08-28T02:38:31.190Z,1010.21
2022-08-28T02:39:31.125Z,1010.23
2022-08-28T02:40:31.140Z,1010.19
2022-08-28T02:41:31.009Z,1010.25
2022-08-28T02:42:30.950Z,1010.27
2022-08-28T02:43:30.887Z,1010.22
2022-08-28T02:44:30.829Z,1010.22
2022-08-28T02:45:30.767Z,1010.27
2022-08-28T02:46:30.769Z,1010.24
2022-08-28T02:47:30.647Z,1010.24
2022-08-28T02:48:30.590Z,1010.23
2022-08-28T02:49:35.541Z,1010.26
2022-08-28T02:50:30.470Z,1010.28
2022-08-28T02:51:30.407Z,1010.26
2022-08-28T02:52:30.349Z,1010.27
2022-08-28T02:53:30.294Z,1010.25
2022-08-28T02:54:30.259Z,1010.27
2022-08-28T02:55:33.975Z,1010.23
2022-08-28T02:56:30.110Z,1010.25
2022-08-28T02:57:30.071Z,1010.24
2022-08-28T02:58:29.991Z,1010.28
2022-08-28T02:59:30.577Z,1010.33
2022-08-28T03:00:29.872Z,1010.31
2022-08-28T03:01:29.834Z,1010.34
2022-08-28T03:02:29.793Z,1010.32
2022-08-28T03:03:29.691Z,1010.34
2022-08-28T03:04:29.632Z,1010.35
2022-08-28T03:05:29.570Z,1010.36
2022-08-28T03:06:29.507Z,1010.32
2022-08-28T03:07:29.449Z,1010.35
2022-08-28T03:08:29.388Z,1010.37
2022-08-28T03:09:29.328Z,1010.38
2022-08-28T03:10:29.268Z,1010.36
2022-08-28T03:11:29.208Z,1010.39
2022-08-28T03:12:29.152Z,1010.37
2022-08-28T03:13:29.090Z,1010.35
2022-08-28T03:14:29.035Z,1010.40
2022-08-28T03:15:28.966Z,1010.38
2022-08-28T03:16:29.615Z,1010.36
2022-08-28T03:17:28.846Z,1010.36
2022-08-28T03:18:28.798Z,1010.35
2022-08-28T03:19:28.742Z,1010.43
2022-08-28T03:20:28.687Z,1010.38
2022-08-28T03:21:28.615Z,1010.37
2022-08-28T03:22:28.554Z,1010.38
2022-08-28T03:23:28.501Z,1010.41
2022-08-28T03:24:28.433Z,1010.40
2022-08-28T03:25:28.369Z,1010.38
2022-08-28T03:26:28.312Z,1010.37
2022-08-28T03:27:28.250Z,1010.40
2022-08-28T03:28:28.188Z,1010.43
2022-08-28T03:29:28.128Z,1010.44
2022-08-28T03:30:28.120Z,1010.40
2022-08-28T03:31:28.005Z,1010.40
2022-08-28T03:32:29.311Z,1010.39
2022-08-28T03:33:27.886Z,1010.38
2022-08-28T03:34:27.829Z,1010.43
2022-08-28T03:35:27.766Z,1010.39
2022-08-28T03:36:27.711Z,1010.35
2022-08-28T03:37:27.650Z,1010.40
2022-08-28T03:38:27.585Z,1010.38
2022-08-28T03:39:27.529Z,1010.40
2022-08-28T03:40:27.524Z,1010.38
2022-08-28T03:41:27.405Z,1010.37
2022-08-28T03:42:27.348Z,1010.41
2022-08-28T03:43:27.288Z,1010.38
2022-08-28T03:44:27.227Z,1010.40
2022-08-28T03:45:27.178Z,1010.37
2022-08-28T03:46:27.173Z,1010.42
2022-08-28T03:47:27.045Z,1010.40
2022-08-28T03:48:26.994Z,1010.40
2022-08-28T03:49:26.926Z,1010.36
2022-08-28T03:50:26.864Z,1010.38
2022-08-28T03:51:29.710Z,1010.39
2022-08-28T03:52:26.750Z,1010.39
2022-08-28T03:53:26.689Z,1010.41
2022-08-28T03:54:26.624Z,1010.42
2022-08-28T03:55:26.567Z,1010.39
2022-08-28T03:56:26.506Z,1010.44
2022-08-28T03:57:26.443Z,1010.43
2022-08-28T03:58:26.385Z,1010.44
2022-08-28T03:59:29.809Z,1010.41
2022-08-28T04:00:26.263Z,1010.46
2022-08-28T04:01:26.286Z,1010.45
2022-08-28T04:02:26.142Z,1010.45
2022-08-28T04:03:26.120Z,1010.47
2022-08-28T04:04:26.027Z,1010.48
2022-08-28T04:05:25.969Z,1010.50
2022-08-28T04:06:25.900Z,1010.44
2022-08-28T04:07:25.842Z,1010.51
2022-08-28T04:08:25.780Z,1010.49
2022-08-28T04:09:25.726Z,1010.52
2022-08-28T04:10:25.659Z,1010.52
2022-08-28T04:11:25.601Z,1010.55
2022-08-28T04:12:25.540Z,1010.54
2022-08-28T04:13:25.481Z,1010.49
2022-08-28T04:14:25.420Z,1010.50
2022-08-28T04:15:25.363Z,1010.55
2022-08-28T04:16:25.360Z,1010.56
2022-08-28T04:17:25.242Z,1010.55
2022-08-28T04:18:25.177Z,1010.55
2022-08-28T04:19:25.120Z,1010.55
2022-08-28T04:20:25.058Z,1010.55
2022-08-28T04:21:25.001Z,1010.54
2022-08-28T04:22:24.936Z,1010.59
2022-08-28T04:23:24.894Z,1010.64
2022-08-28T04:24:24.826Z,1010.64
2022-08-28T04:25:24.777Z,1010.65
2022-08-28T04:26:24.701Z,1010.67
2022-08-28T04:27:24.643Z,1010.68
2022-08-28T04:28:24.582Z,1010.70
2022-08-28T04:29:24.517Z,1010.69
2022-08-28T04:30:24.474Z,1010.70
2022-08-28T04:31:32.222Z,1010.76
2022-08-28T04:32:24.335Z,1010.72
2022-08-28T04:33:24.278Z,1010.71
2022-08-28T04:34:24.214Z,1010.74
2022-08-28T04:35:24.156Z,1010.73
2022-08-28T04:36:24.094Z,1010.77
2022-08-28T04:37:27.809Z,1010.85
2022-08-28T04:38:23.975Z,1010.85
2022-08-28T04:39:23.915Z,1010.85
2022-08-28T04:40:23.893Z,1010.86
2022-08-28T04:41:23.803Z,1010.83
2022-08-28T04:42:23.731Z,1010.81
2022-08-28T04:43:23.672Z,1010.89
2022-08-28T04:44:23.613Z,1010.86
2022-08-28T04:45:23.553Z,1010.87
2022-08-28T04:46:23.488Z,1010.85
2022-08-28T04:47:23.434Z,1010.87
2022-08-28T04:48:23.370Z,1010.88
2022-08-28T04:49:23.310Z,1010.89
2022-08-28T04:50:23.255Z,1010.89
2022-08-28T04:51:23.189Z,1010.91
2022-08-28T04:52:23.127Z,1010.88
2022-08-28T04:53:23.068Z,1010.91
2022-08-28T04:54:23.007Z,1010.92
2022-08-28T04:55:26.098Z,1010.94
2022-08-28T04:56:22.888Z,1010.91
2022-08-28T04:57:22.829Z,1010.91
2022-08-28T04:58:23.808Z,1010.93
2022-08-28T04:59:22.716Z,1010.92
2022-08-28T05:00:22.646Z,1010.93
2022-08-28T05:01:22.626Z,1010.91
2022-08-28T05:02:22.581Z,1010.90
2022-08-28T05:03:22.477Z,1010.89
2022-08-28T05:04:22.406Z,1010.87
2022-08-28T05:05:22.351Z,1010.93
2022-08-28T05:06:22.286Z,1010.93
2022-08-28T05:07:22.225Z,1010.94
2022-08-28T05:08:22.170Z,1010.93
2022-08-28T05:09:22.106Z,1010.95
2022-08-28T05:10:22.041Z,1010.95
2022-08-28T05:11:24.503Z,1010.94
2022-08-28T05:12:21.922Z,1010.98
2022-08-28T05:13:21.869Z,1010.95
2022-08-28T05:14:21.820Z,1010.96
2022-08-28T05:15:21.746Z,1011.00
2022-08-28T05:16:21.724Z,1010.98
2022-08-28T05:17:21.624Z,1010.99
2022-08-28T05:18:21.561Z,1010.97
2022-08-28T05:19:21.515Z,1010.97
2022-08-28T05:20:21.439Z,1011.01
2022-08-28T05:21:21.379Z,1011.02
2022-08-28T05:22:21.322Z,1011.01
2022-08-28T05:23:25.442Z,1011.01
2022-08-28T05:24:21.197Z,1011.00
2022-08-28T05:25:21.140Z,1011.03
2022-08-28T05:26:21.081Z,1011.03
2022-08-28T05:27:21.018Z,1011.03
2022-08-28T05:28:20.958Z,1011.05
2022-08-28T05:29:20.899Z,1011.01
2022-08-28T05:30:20.839Z,1011.05
2022-08-28T05:31:20.821Z,1011.07
2022-08-28T05:32:20.728Z,1011.08
2022-08-28T05:33:20.663Z,1011.06
2022-08-28T05:34:20.595Z,1011.10
2022-08-28T05:35:20.536Z,1011.13
2022-08-28T05:36:20.483Z,1011.14
2022-08-28T05:37:20.423Z,1011.16
2022-08-28T05:38:20.371Z,1011.15
2022-08-28T05:39:20.297Z,1011.18
2022-08-28T05:40:20.279Z,1011.20
2022-08-28T05:41:20.182Z,1011.17
2022-08-28T05:42:20.114Z,1011.19
2022-08-28T05:43:20.056Z,1011.24
2022-08-28T05:44:19.994Z,1011.22
2022-08-28T05:45:19.940Z,1011.20
2022-08-28T05:46:19.900Z,1011.20
2022-08-28T05:47:21.607Z,1011.18
2022-08-28T05:48:19.754Z,1011.19
2022-08-28T05:49:19.754Z,1011.18
2022-08-28T05:50:19.680Z,1011.22
2022-08-28T05:51:19.616Z,1011.23
2022-08-28T05:52:19.521Z,1011.23
2022-08-28T05:53:19.495Z,1011.24
2022-08-28T05:54:19.515Z,1011.26
2022-08-28T05:55:19.413Z,1011.25
2022-08-28T05:56:19.310Z,1011.23
2022-08-28T05:57:19.246Z,1011.21
2022-08-28T05:58:19.219Z,1011.24
2022-08-28T05:59:19.133Z,1011.18
2022-08-28T06:00:19.062Z,1011.24
2022-08-28T06:01:19.036Z,1011.19
2022-08-28T06:02:18.980Z,1011.17
2022-08-28T06:03:18.946Z,1011.18
2022-08-28T06:04:18.941Z,1011.20
2022-08-28T06:05:18.788Z,1011.23
2022-08-28T06:06:18.760Z,1011.22
2022-08-28T06:07:18.664Z,1011.23
2022-08-28T06:08:18.603Z,1011.25
2022-08-28T06:09:18.576Z,1011.25
2022-08-28T06:10:18.489Z,1011.23
2022-08-28T06:11:18.417Z,1011.24
2022-08-28T06:12:18.315Z,1011.27
2022-08-28T06:13:19.217Z,1011.24
2022-08-28T06:14:18.247Z,1011.20
2022-08-28T06:15:18.131Z,1011.28
2022-08-28T06:16:18.117Z,1011.24
2022-08-28T06:17:18.007Z,1011.27
2022-08-28T06:18:17.948Z,1011.27
2022-08-28T06:19:17.887Z,1011.25
2022-08-28T06:20:17.828Z,1011.27
2022-08-28T06:21:17.772Z,1011.29
2022-08-28T06:22:17.708Z,1011.27
2022-08-28T06:23:23.923Z,1011.27
2022-08-28T06:24:17.587Z,1011.28
2022-08-28T06:25:17.528Z,1011.25
2022-08-28T06:26:17.469Z,1011.25
2022-08-28T06:27:17.407Z,1011.23
2022-08-28T06:28:17.348Z,1011.27
2022-08-28T06:29:17.295Z,1011.30
2022-08-28T06:30:17.226Z,1011.32
2022-08-28T06:31:24.498Z,1011.30
2022-08-28T06:32:17.215Z,1011.34
2022-08-28T06:33:17.047Z,1011.31
2022-08-28T06:34:16.986Z,1011.36
2022-08-28T06:35:16.928Z,1011.33
2022-08-28T06:36:16.872Z,1011.36
2022-08-28T06:37:16.818Z,1011.38
2022-08-28T06:38:16.745Z,1011.36
2022-08-28T06:39:16.696Z,1011.42
2022-08-28T06:40:16.693Z,1011.41
2022-08-28T06:41:16.578Z,1011.43
2022-08-28T06:42:16.513Z,1011.42
2022-08-28T06:43:16.450Z,1011.41
2022-08-28T06:44:16.391Z,1011.40
2022-08-28T06:45:16.326Z,1011.39
2022-08-28T06:46:16.329Z,1011.47
2022-08-28T06:47:16.232Z,1011.50
2022-08-28T06:48:16.143Z,1011.53
2022-08-28T06:49:16.087Z,1011.52
2022-08-28T06:50:16.025Z,1011.56
2022-08-28T06:51:15.969Z,1011.52
2022-08-28T06:52:15.906Z,1011.56
2022-08-28T06:53:15.848Z,1011.59
2022-08-28T06:54:21.129Z,1011.63
2022-08-28T06:55:15.737Z,1011.62
2022-08-28T06:56:25.577Z,1011.58
2022-08-28T06:57:15.610Z,1011.63
2022-08-28T06:58:15.548Z,1011.60
2022-08-28T06:59:15.489Z,1011.60
2022-08-28T07:00:15.425Z,1011.64
2022-08-28T07:01:15.411Z,1011.65
2022-08-28T07:02:15.406Z,1011.64
2022-08-28T07:03:15.256Z,1011.69
2022-08-28T07:04:15.189Z,1011.62
2022-08-28T07:05:15.134Z,1011.68
2022-08-28T07:06:15.068Z,1011.66
2022-08-28T07:07:32.460Z,1011.66
2022-08-28T07:08:14.952Z,1011.70
2022-08-28T07:09:14.891Z,1011.68
2022-08-28T07:10:14.829Z,1011.74
2022-08-28T07:11:14.775Z,1011.74
2022-08-28T07:12:14.717Z,1011.77
2022-08-28T07:13:14.653Z,1011.78
2022-08-28T07:14:14.593Z,1011.82
2022-08-28T07:15:14.535Z,1011.79
2022-08-28T07:16:14.536Z,1011.81
2022-08-28T07:17:14.415Z,1011.86
2022-08-28T07:18:14.439Z,1011.79
2022-08-28T07:19:14.295Z,1011.84
2022-08-28T07:20:14.236Z,1011.84
2022-08-28T07:21:14.180Z,1011.84
2022-08-28T07:22:14.115Z,1011.87
2022-08-28T07:23:14.070Z,1011.89
2022-08-28T07:24:14.007Z,1011.90
2022-08-28T07:25:13.943Z,1011.88
2022-08-28T07:26:13.882Z,1011.91
2022-08-28T07:27:18.767Z,1011.94
2022-08-28T07:28:13.950Z,1011.93
2022-08-28T07:29:13.704Z,1011.95
2022-08-28T07:30:13.643Z,1011.98
2022-08-28T07:31:13.641Z,1011.96
2022-08-28T07:32:13.525Z,1011.97
2022-08-28T07:33:13.468Z,1011.98
2022-08-28T07:34:13.407Z,1012.01
2022-08-28T07:35:14.197Z,1011.98
2022-08-28T07:36:15.884Z,1012.03
2022-08-28T07:37:15.330Z,1012.00
2022-08-28T07:38:13.391Z,1012.03
2022-08-28T07:39:13.112Z,1012.08
2022-08-28T07:40:13.120Z,1012.06
2022-08-28T07:41:13.000Z,1012.11
2022-08-28T07:42:12.936Z,1012.08
2022-08-28T07:43:12.877Z,1012.15
2022-08-28T07:44:12.815Z,1012.19
2022-08-28T07:45:12.758Z,1012.21
2022-08-28T07:46:12.782Z,1012.24
2022-08-28T07:47:12.638Z,1012.21
2022-08-28T07:48:12.985Z,1012.25
2022-08-28T07:49:12.525Z,1012.23
2022-08-28T07:50:13.200Z,1012.25
2022-08-28T07:51:12.403Z,1012.24
2022-08-28T07:52:12.345Z,1012.27
2022-08-28T07:53:12.294Z,1012.27
2022-08-28T07:54:15.681Z,1012.24
2022-08-28T07:55:12.188Z,1012.26
2022-08-28T07:56:12.116Z,1012.24
2022-08-28T07:57:12.053Z,1012.25
2022-08-28T07:58:12.088Z,1012.28
2022-08-28T07:59:11.939Z,1012.22
2022-08-28T08:00:11.909Z,1012.29
2022-08-28T08:01:11.866Z,1012.26
2022-08-28T08:02:11.753Z,1012.24
2022-08-28T08:03:11.719Z,1012.25
2022-08-28T08:04:11.633Z,1012.24
2022-08-28T08:05:11.574Z,1012.27
2022-08-28T08:06:11.514Z,1012.28
2022-08-28T08:07:11.490Z,1012.29
2022-08-28T08:08:11.422Z,1012.23
2022-08-28T08:09:11.354Z,1012.27
2022-08-28T08:10:11.291Z,1012.25
2022-08-28T08:11:11.364Z,1012.27
2022-08-28T08:12:11.177Z,1012.33
2022-08-28T08:13:11.104Z,1012.27
2022-08-28T08:14:11.046Z,1012.28
2022-08-28T08:15:10.990Z,1012.32
2022-08-28T08:16:10.953Z,1012.27
2022-08-28T08:17:10.861Z,1012.33
2022-08-28T08:18:10.810Z,1012.37
2022-08-28T08:19:10.744Z,1012.36
2022-08-28T08:20:10.686Z,1012.37
2022-08-28T08:21:10.629Z,1012.40
2022-08-28T08:22:10.568Z,1012.41
2022-08-28T08:23:10.537Z,1012.36
2022-08-28T08:24:10.467Z,1012.42
2022-08-28T08:25:10.395Z,1012.39
2022-08-28T08:26:10.353Z,1012.33
2022-08-28T08:27:11.216Z,1012.36
2022-08-28T08:28:10.222Z,1012.38
2022-08-28T08:29:10.174Z,1012.38
2022-08-28T08:30:10.101Z,1012.40
2022-08-28T08:31:10.082Z,1012.40
2022-08-28T08:32:09.985Z,1012.41
2022-08-28T08:33:09.917Z,1012.40
2022-08-28T08:34:09.855Z,1012.44
2022-08-28T08:35:09.797Z,1012.42
2022-08-28T08:36:09.747Z,1012.42
2022-08-28T08:37:09.686Z,1012.42
2022-08-28T08:38:09.632Z,1012.46
2022-08-28T08:39:09.859Z,1012.41
2022-08-28T08:40:10.800Z,1012.42
2022-08-28T08:41:09.450Z,1012.46
2022-08-28T08:42:09.388Z,1012.46
2022-08-28T08:43:09.326Z,1012.48
2022-08-28T08:44:09.260Z,1012.45
2022-08-28T08:45:09.203Z,1012.47
2022-08-28T08:46:09.754Z,1012.48
2022-08-28T08:47:13.792Z,1012.47
2022-08-28T08:48:09.111Z,1012.45
2022-08-28T08:49:09.016Z,1012.48
2022-08-28T08:50:08.907Z,1012.49
2022-08-28T08:51:08.845Z,1012.51
2022-08-28T08:52:08.787Z,1012.53
2022-08-28T08:53:08.727Z,1012.48
2022-08-28T08:54:08.665Z,1012.53
2022-08-28T08:55:08.608Z,1012.51
2022-08-28T08:56:08.556Z,1012.54
2022-08-28T08:57:08.500Z,1012.54
2022-08-28T08:58:08.432Z,1012.52
2022-08-28T08:59:08.367Z,1012.51
2022-08-28T09:00:12.265Z,1012.56
2022-08-28T09:01:08.305Z,1012.58
2022-08-28T09:02:08.189Z,1012.59
2022-08-28T09:03:08.763Z,1012.58
2022-08-28T09:04:08.070Z,1012.63
2022-08-28T09:05:08.013Z,1012.62
2022-08-28T09:06:07.951Z,1012.60
2022-08-28T09:07:07.892Z,1012.65
2022-08-28T09:08:07.841Z,1012.60
2022-08-28T09:09:07.773Z,1012.61
2022-08-28T09:10:07.710Z,1012.59
2022-08-28T09:11:08.226Z,1012.60
2022-08-28T09:12:07.596Z,1012.61
2022-08-28T09:13:07.535Z,1012.61
2022-08-28T09:14:07.482Z,1012.61
2022-08-28T09:15:07.418Z,1012.60
2022-08-28T09:16:07.401Z,1012.65
2022-08-28T09:17:07.305Z,1012.61
2022-08-28T09:18:07.238Z,1012.63
2022-08-28T09:19:07.180Z,1012.61
2022-08-28T09:20:07.116Z,1012.66
2022-08-28T09:21:07.055Z,1012.63
2022-08-28T09:22:07.061Z,1012.65
2022-08-28T09:23:12.911Z,1012.59
2022-08-28T09:24:07.340Z,1012.60
2022-08-28T09:25:06.820Z,1012.63
2022-08-28T09:26:06.757Z,1012.65
2022-08-28T09:27:09.002Z,1012.65
2022-08-28T09:28:06.637Z,1012.70
2022-08-28T09:29:06.579Z,1012.68
2022-08-28T09:30:07.931Z,1012.70
2022-08-28T09:31:06.608Z,1012.69
2022-08-28T09:32:06.404Z,1012.69
2022-08-28T09:33:06.350Z,1012.66
2022-08-28T09:34:07.242Z,1012.70
2022-08-28T09:35:06.226Z,1012.73
2022-08-28T09:36:06.165Z,1012.68
2022-08-28T09:37:06.104Z,1012.70
2022-08-28T09:38:06.065Z,1012.69
2022-08-28T09:39:05.989Z,1012.68
2022-08-28T09:40:05.996Z,1012.69
2022-08-28T09:41:05.861Z,1012.70
2022-08-28T09:42:05.800Z,1012.71
2022-08-28T09:43:05.742Z,1012.77
2022-08-28T09:44:05.682Z,1012.71
2022-08-28T09:45:09.435Z,1012.73
2022-08-28T09:46:05.600Z,1012.76
2022-08-28T09:47:05.513Z,1012.74
2022-08-28T09:48:05.450Z,1012.76
2022-08-28T09:49:05.381Z,1012.77
2022-08-28T09:50:06.247Z,1012.79
2022-08-28T09:51:05.260Z,1012.76
2022-08-28T09:52:05.205Z,1012.77
2022-08-28T09:53:05.153Z,1012.76
2022-08-28T09:54:05.099Z,1012.79
2022-08-28T09:55:05.033Z,1012.80
2022-08-28T09:56:04.970Z,1012.82
2022-08-28T09:57:04.905Z,1012.81
2022-08-28T09:58:04.846Z,1012.81
2022-08-28T09:59:04.786Z,1012.81
2022-08-28T10:00:04.792Z,1012.84
2022-08-28T10:01:05.248Z,1012.88
2022-08-28T10:02:04.610Z,1012.82
2022-08-28T10:03:07.628Z,1012.90
2022-08-28T10:04:04.564Z,1012.87
2022-08-28T10:05:04.428Z,1012.88
2022-08-28T10:06:04.376Z,1012.89
2022-08-28T10:07:04.306Z,1012.88
2022-08-28T10:08:04.250Z,1012.92
2022-08-28T10:09:04.187Z,1012.91
2022-08-28T10:10:07.508Z,1012.95
2022-08-28T10:11:04.068Z,1012.95
2022-08-28T10:12:04.028Z,1012.93
2022-08-28T10:13:04.761Z,1012.96
2022-08-28T10:14:03.901Z,1012.93
2022-08-28T10:15:03.838Z,1012.93
2022-08-28T10:16:03.835Z,1012.95
2022-08-28T10:17:03.716Z,1012.96
2022-08-28T10:18:03.657Z,1013.00
2022-08-28T10:19:03.608Z,1013.01
2022-08-28T10:20:03.546Z,1013.02
2022-08-28T10:21:03.474Z,1013.02
2022-08-28T10:22:04.952Z,1013.06
2022-08-28T10:23:03.355Z,1013.05
2022-08-28T10:24:03.295Z,1013.00
2022-08-28T10:25:03.236Z,1013.07
2022-08-28T10:26:03.181Z,1013.08
2022-08-28T10:27:03.112Z,1013.08
2022-08-28T10:28:03.058Z,1013.03
2022-08-28T10:29:02.996Z,1013.08
2022-08-28T10:30:07.775Z,1013.09
2022-08-28T10:31:02.922Z,1013.11
2022-08-28T10:32:02.816Z,1013.15
2022-08-28T10:33:02.769Z,1013.15
2022-08-28T10:34:02.697Z,1013.16
2022-08-28T10:35:02.636Z,1013.14
2022-08-28T10:36:02.577Z,1013.14
2022-08-28T10:37:02.521Z,1013.17
2022-08-28T10:38:02.463Z,1013.12
2022-08-28T10:39:02.402Z,1013.14
2022-08-28T10:40:02.382Z,1013.19
2022-08-28T10:41:02.281Z,1013.19
2022-08-28T10:42:02.218Z,1013.15
2022-08-28T10:43:02.158Z,1013.16
2022-08-28T10:44:02.102Z,1013.18
2022-08-28T10:45:02.039Z,1013.20
2022-08-28T10:46:02.036Z,1013.20
2022-08-28T10:47:01.917Z,1013.15
2022-08-28T10:48:01.858Z,1013.19
2022-08-28T10:49:01.799Z,1013.21
2022-08-28T10:50:01.749Z,1013.16
2022-08-28T10:51:01.696Z,1013.19
2022-08-28T10:52:01.627Z,1013.21
2022-08-28T10:53:01.560Z,1013.22
2022-08-28T10:54:01.506Z,1013.20
2022-08-28T10:55:01.444Z,1013.21
2022-08-28T10:56:01.394Z,1013.25
2022-08-28T10:57:01.320Z,1013.23
2022-08-28T10:58:01.262Z,1013.22
2022-08-28T10:59:01.233Z,1013.22
2022-08-28T11:00:01.150Z,1013.20
2022-08-28T11:01:01.252Z,1013.24
2022-08-28T11:02:01.028Z,1013.29
2022-08-28T11:03:01.033Z,1013.31
2022-08-28T11:04:00.912Z,1013.30
2022-08-28T11:05:00.882Z,1013.33
2022-08-28T11:06:00.782Z,1013.32
2022-08-28T11:07:00.762Z,1013.31
2022-08-28T11:08:00.859Z,1013.36
2022-08-28T11:09:00.671Z,1013.37
2022-08-28T11:10:00.606Z,1013.41
2022-08-28T11:11:00.581Z,1013.39
2022-08-28T11:12:02.279Z,1013.40
2022-08-28T11:13:00.422Z,1013.41
2022-08-28T11:14:00.319Z,1013.42
2022-08-28T11:15:00.302Z,1013.33
2022-08-28T11:16:00.232Z,1013.39
2022-08-28T11:17:00.212Z,1013.38
2022-08-28T11:18:00.147Z,1013.39
2022-08-28T11:19:00.061Z,1013.37
2022-08-28T11:19:59.957Z,1013.36
2022-08-28T11:20:59.933Z,1013.35
2022-08-28T11:21:59.866Z,1013.39
2022-08-28T11:22:59.836Z,1013.35
2022-08-28T11:23:59.742Z,1013.36
2022-08-28T11:25:04.448Z,1013.42
2022-08-28T11:25:59.852Z,1013.44
2022-08-28T11:26:59.563Z,1013.40
2022-08-28T11:27:59.569Z,1013.45
2022-08-28T11:28:59.471Z,1013.50
2022-08-28T11:29:59.399Z,1013.50
2022-08-28T11:30:59.400Z,1013.50
2022-08-28T11:31:59.310Z,1013.52
2022-08-28T11:32:59.223Z,1013.51
2022-08-28T11:33:59.203Z,1013.58
2022-08-28T11:34:59.100Z,1013.53
2022-08-28T11:35:59.038Z,1013.56
2022-08-28T11:36:59.041Z,1013.57
2022-08-28T11:37:58.914Z,1013.59
2022-08-28T11:38:58.843Z,1013.56
2022-08-28T11:39:59.301Z,1013.56
2022-08-28T11:40:58.727Z,1013.58
2022-08-28T11:41:58.767Z,1013.60
2022-08-28T11:42:58.771Z,1013.60
2022-08-28T11:43:58.569Z,1013.59
2022-08-28T11:44:58.472Z,1013.60
2022-08-28T11:45:58.512Z,1013.57
2022-08-28T11:46:58.609Z,1013.57
2022-08-28T11:47:58.291Z,1013.59
2022-08-28T11:48:58.263Z,1013.55
2022-08-28T11:49:58.207Z,1013.57
2022-08-28T11:50:58.104Z,1013.57
2022-08-28T11:51:58.085Z,1013.56
2022-08-28T11:52:58.118Z,1013.54
2022-08-28T11:53:58.021Z,1013.55
2022-08-28T11:54:57.891Z,1013.55
2022-08-28T11:55:57.831Z,1013.53
2022-08-28T11:56:57.799Z,1013.54
2022-08-28T11:58:57.640Z,1013.49
2022-08-28T11:59:57.629Z,1013.49
2022-08-28T12:00:57.551Z,1013.49
2022-08-28T12:01:57.527Z,1013.50
2022-08-28T12:02:57.427Z,1013.52
2022-08-28T12:03:57.437Z,1013.54
2022-08-28T12:04:57.344Z,1013.52
2022-08-28T12:05:57.250Z,1013.47